createdAt,value
2023-02-08T00:01:21.906Z,22.40
2023-02-08T00:03:52.104Z,18.38
2023-02-08T00:06:24.873Z,19.50
2023-02-08T00:08:54.886Z,21.58
2023-02-08T00:11:25.162Z,18.73
2023-02-08T00:13:55.144Z,17.67
2023-02-08T00:16:25.312Z,19.77
2023-02-08T00:18:56.293Z,18.60
2023-02-08T00:21:29.028Z,20.65
2023-02-08T00:23:59.001Z,19.35
2023-02-08T00:26:30.032Z,22.00
2023-02-08T00:29:00.026Z,27.13
2023-02-08T00:31:30.345Z,28.83
2023-02-08T00:34:00.638Z,23.13
2023-02-08T00:36:33.283Z,21.45
2023-02-08T00:39:03.264Z,20.10
2023-02-08T00:41:33.274Z,17.35
2023-02-08T00:44:03.266Z,17.80
2023-02-08T00:46:33.429Z,18.80
2023-02-08T00:49:04.027Z,21.42
2023-02-08T00:51:36.901Z,18.85
2023-02-08T00:54:07.164Z,17.85
2023-02-08T00:56:37.209Z,18.38
2023-02-08T00:59:07.250Z,17.08
2023-02-08T01:01:37.520Z,18.15
2023-02-08T01:04:08.370Z,14.93
2023-02-08T01:06:40.988Z,15.32
2023-02-08T01:09:11.221Z,17.75
2023-02-08T01:11:41.511Z,20.40
2023-02-08T01:14:11.726Z,17.83
2023-02-08T01:16:41.739Z,14.60
2023-02-08T01:19:12.193Z,15.13
2023-02-08T01:21:45.500Z,15.80
2023-02-08T01:24:15.907Z,15.13
2023-02-08T01:26:46.108Z,14.98
2023-02-08T01:29:16.572Z,15.55
2023-02-08T01:31:48.074Z,15.05
2023-02-08T01:34:18.105Z,16.85
2023-02-08T01:36:50.898Z,14.18
2023-02-08T01:39:21.093Z,15.52
2023-02-08T01:41:51.154Z,18.08
2023-02-08T01:44:51.100Z,17.15
2023-02-08T01:47:21.385Z,15.13
2023-02-08T01:49:51.425Z,13.95
2023-02-08T01:52:28.857Z,14.70
2023-02-08T01:55:02.381Z,16.38
2023-02-08T01:57:33.247Z,13.48
2023-02-08T02:00:07.155Z,13.27
2023-02-08T02:02:38.862Z,14.00
2023-02-08T02:05:10.310Z,16.13
2023-02-08T02:07:43.818Z,11.45
2023-02-08T02:10:18.122Z,15.70
2023-02-08T02:12:48.521Z,15.48
2023-02-08T02:15:18.760Z,16.45
2023-02-08T02:17:49.031Z,16.38
2023-02-08T02:20:25.857Z,16.70
2023-02-08T02:23:25.707Z,14.65
2023-02-08T02:26:26.382Z,14.98
2023-02-08T02:29:33.326Z,15.95
2023-02-08T02:32:33.199Z,13.40
2023-02-08T02:35:08.017Z,15.15
2023-02-08T02:37:53.328Z,15.05
2023-02-08T02:40:29.581Z,18.23
2023-02-08T02:43:21.543Z,12.13
2023-02-08T02:45:59.187Z,18.58
2023-02-08T02:48:41.236Z,13.57
2023-02-08T02:51:14.986Z,16.42
2023-02-08T02:53:51.263Z,14.25
2023-02-08T02:56:25.374Z,14.40
2023-02-08T02:58:59.059Z,12.93
2023-02-08T03:01:30.249Z,11.80
2023-02-08T03:04:03.064Z,14.82
2023-02-08T03:06:46.023Z,13.23
2023-02-08T03:09:42.977Z,17.98
2023-02-08T03:12:25.513Z,14.43
2023-02-08T03:15:05.888Z,15.23
2023-02-08T03:17:54.675Z,14.48
2023-02-08T03:20:31.292Z,13.80
2023-02-08T03:23:07.445Z,16.38
2023-02-08T03:25:45.684Z,13.82
2023-02-08T03:28:25.526Z,13.85
2023-02-08T03:31:01.931Z,14.23
2023-02-08T03:33:38.415Z,13.27
2023-02-08T03:36:17.654Z,13.57
2023-02-08T03:38:50.887Z,14.30
2023-02-08T03:41:25.874Z,13.27
2023-02-08T03:44:02.825Z,19.55
2023-02-08T03:46:38.659Z,14.75
2023-02-08T03:49:12.654Z,12.60
2023-02-08T03:51:46.439Z,14.18
2023-02-08T03:54:20.417Z,16.67
2023-02-08T03:56:56.886Z,13.75
2023-02-08T03:59:30.346Z,13.88
2023-02-08T04:02:02.843Z,14.85
2023-02-08T04:04:36.897Z,13.18
2023-02-08T04:07:09.803Z,14.50
2023-02-08T04:09:40.117Z,14.43
2023-02-08T04:12:10.926Z,16.45
2023-02-08T04:14:41.098Z,13.43
2023-02-08T04:17:11.536Z,14.13
2023-02-08T04:19:43.752Z,12.48
2023-02-08T04:22:16.466Z,15.45
2023-02-08T04:24:46.466Z,13.57
2023-02-08T04:27:16.985Z,16.08
2023-02-08T04:29:47.032Z,18.17
2023-02-08T04:32:17.214Z,15.88
2023-02-08T04:34:47.272Z,13.52
2023-02-08T04:37:20.123Z,14.95
2023-02-08T04:39:50.335Z,12.70
2023-02-08T04:42:20.718Z,12.98
2023-02-08T04:44:50.700Z,15.32
2023-02-08T04:47:20.923Z,16.40
2023-02-08T04:49:51.212Z,16.92
2023-02-08T04:52:23.837Z,19.75
2023-02-08T04:54:54.024Z,13.65
2023-02-08T04:57:24.290Z,14.98
2023-02-08T04:59:55.146Z,13.35
2023-02-08T05:02:25.220Z,14.13
2023-02-08T05:04:55.450Z,16.13
2023-02-08T05:07:28.377Z,14.25
2023-02-08T05:09:58.584Z,13.77
2023-02-08T05:12:28.781Z,16.35
2023-02-08T05:14:58.837Z,12.63
2023-02-08T05:17:28.877Z,12.65
2023-02-08T05:19:59.104Z,14.52
2023-02-08T05:22:31.938Z,14.98
2023-02-08T05:25:02.159Z,16.92
2023-02-08T05:27:32.494Z,19.88
2023-02-08T05:30:02.719Z,18.30
2023-02-08T05:32:32.815Z,19.30
2023-02-08T05:35:02.837Z,16.02
2023-02-08T05:37:35.643Z,20.55
2023-02-08T05:40:05.914Z,15.20
2023-02-08T05:42:36.389Z,16.48
2023-02-08T05:45:06.663Z,17.30
2023-02-08T05:47:36.736Z,17.85
2023-02-08T05:50:07.321Z,13.20
2023-02-08T05:52:39.940Z,14.10
2023-02-08T05:55:10.716Z,17.65
2023-02-08T05:57:40.816Z,15.02
2023-02-08T06:00:12.502Z,18.73
2023-02-08T06:02:42.775Z,14.57
2023-02-08T06:05:12.785Z,16.75
2023-02-08T06:07:45.454Z,15.20
2023-02-08T06:10:15.514Z,13.82
2023-02-08T06:12:45.601Z,14.13
2023-02-08T06:15:15.624Z,16.98
2023-02-08T06:17:46.092Z,12.52
2023-02-08T06:20:18.960Z,13.80
2023-02-08T06:22:51.736Z,13.05
2023-02-08T06:25:21.850Z,12.57
2023-02-08T06:27:52.160Z,14.90
2023-02-08T06:30:22.578Z,13.55
2023-02-08T06:32:52.759Z,14.32
2023-02-08T06:35:23.161Z,15.27
2023-02-08T06:37:55.859Z,13.48
2023-02-08T06:40:25.867Z,15.38
2023-02-08T06:42:56.174Z,14.00
2023-02-08T06:45:26.381Z,15.85
2023-02-08T06:47:56.407Z,15.00
2023-02-08T06:50:26.642Z,18.70
2023-02-08T06:52:59.232Z,16.10
2023-02-08T06:55:29.432Z,14.98
2023-02-08T06:57:59.818Z,16.60
2023-02-08T07:00:29.799Z,13.05
2023-02-08T07:03:01.146Z,13.18
2023-02-08T07:05:31.452Z,14.70
2023-02-08T07:08:04.111Z,15.60
2023-02-08T07:10:34.207Z,14.75
2023-02-08T07:13:05.236Z,17.27
2023-02-08T07:15:35.772Z,16.88
2023-02-08T07:18:06.117Z,20.30
2023-02-08T07:20:36.373Z,19.65
2023-02-08T07:23:09.074Z,16.45
2023-02-08T07:25:39.047Z,16.55
2023-02-08T07:28:09.736Z,24.08
2023-02-08T07:30:40.478Z,14.40
2023-02-08T07:33:10.774Z,14.73
2023-02-08T07:35:41.004Z,21.65
2023-02-08T07:38:13.867Z,17.30
2023-02-08T07:40:44.517Z,15.65
2023-02-08T07:43:14.550Z,17.42
2023-02-08T07:45:44.765Z,22.58
2023-02-08T07:48:15.095Z,20.52
2023-02-08T07:50:45.488Z,16.52
2023-02-08T07:53:18.282Z,21.95
2023-02-08T07:55:49.774Z,16.92
2023-02-08T07:58:20.479Z,16.13
2023-02-08T08:00:50.920Z,17.42
2023-02-08T08:03:21.501Z,20.35
2023-02-08T08:05:54.972Z,13.10
2023-02-08T08:08:27.745Z,17.38
2023-02-08T08:10:57.808Z,15.77
2023-02-08T08:13:27.973Z,16.73
2023-02-08T08:15:58.571Z,17.02
2023-02-08T08:18:29.647Z,29.73
2023-02-08T08:20:59.664Z,31.33
2023-02-08T08:23:33.429Z,32.25
2023-02-08T08:26:03.827Z,38.92
2023-02-08T08:28:34.103Z,38.08
2023-02-08T08:31:04.314Z,32.90
2023-02-08T08:33:34.526Z,32.97
2023-02-08T08:36:04.573Z,29.25
2023-02-08T08:38:38.824Z,28.25
2023-02-08T08:41:11.632Z,28.55
2023-02-08T08:43:42.210Z,29.67
2023-02-08T08:46:13.369Z,32.10
2023-02-08T08:51:14.309Z,20.45
2023-02-08T08:53:47.035Z,19.08
2023-02-08T08:56:17.090Z,19.90
2023-02-08T08:58:47.190Z,19.95
2023-02-08T09:01:17.318Z,18.52
2023-02-08T09:03:47.482Z,17.83
2023-02-08T09:06:17.561Z,17.23
2023-02-08T09:08:51.748Z,15.85
2023-02-08T09:11:22.025Z,16.05
2023-02-08T09:13:55.592Z,16.23
2023-02-08T09:16:27.199Z,15.43
2023-02-08T09:18:57.517Z,14.88
2023-02-08T09:21:28.178Z,15.38
2023-02-08T09:24:01.007Z,15.45
2023-02-08T09:26:31.265Z,15.50
2023-02-08T09:29:01.724Z,15.43
2023-02-08T09:31:33.861Z,19.17
2023-02-08T09:34:04.433Z,14.00
2023-02-08T09:39:12.740Z,17.10
2023-02-08T09:42:00.959Z,16.27
2023-02-08T09:44:37.529Z,12.88
2023-02-08T09:47:16.777Z,13.25
2023-02-08T09:49:58.678Z,13.43
2023-02-08T09:52:35.947Z,12.38
2023-02-08T09:57:44.320Z,11.50
2023-02-08T10:00:19.274Z,13.77
2023-02-08T10:02:51.609Z,13.40
2023-02-08T10:05:25.103Z,14.70
2023-02-08T10:07:56.389Z,13.25
2023-02-08T10:10:40.152Z,12.40
2023-02-08T10:13:40.388Z,11.40
2023-02-08T10:16:19.980Z,13.95
2023-02-08T10:19:00.178Z,13.13
2023-02-08T10:21:43.648Z,12.02
2023-02-08T10:27:00.108Z,13.50
2023-02-08T10:29:56.828Z,10.82
2023-02-08T10:32:42.729Z,10.73
2023-02-08T10:35:25.057Z,14.18
2023-02-08T10:37:56.806Z,12.43
2023-02-08T10:40:35.790Z,14.60
2023-02-08T10:43:34.268Z,14.63
2023-02-08T10:46:12.855Z,10.77
2023-02-08T10:48:52.575Z,12.57
2023-02-08T10:51:23.826Z,12.65
2023-02-08T10:53:53.898Z,12.10
2023-02-08T10:56:45.817Z,13.25
2023-02-08T10:59:24.981Z,13.93
2023-02-08T11:01:56.565Z,13.60
2023-02-08T11:04:26.879Z,15.50
2023-02-08T11:06:57.094Z,11.00
2023-02-08T11:12:01.386Z,10.70
2023-02-08T11:14:47.118Z,14.93
2023-02-08T11:17:30.419Z,9.38
2023-02-08T11:20:02.208Z,8.85
2023-02-08T11:22:34.958Z,9.82
2023-02-08T11:25:07.539Z,11.65
2023-02-08T11:27:40.567Z,9.80
2023-02-08T11:30:24.607Z,11.45
2023-02-08T11:33:23.362Z,13.27
2023-02-08T11:36:12.144Z,10.55
2023-02-08T11:38:45.574Z,10.85
2023-02-08T11:41:21.498Z,10.25
2023-02-08T11:44:01.740Z,11.77
2023-02-08T11:46:37.287Z,8.07
2023-02-08T11:49:07.584Z,9.60
2023-02-08T11:51:40.552Z,8.43
2023-02-08T11:54:41.709Z,9.02
2023-02-08T11:57:19.496Z,9.35
2023-02-08T11:59:50.125Z,7.03
2023-02-08T12:02:40.163Z,7.75
2023-02-08T12:05:16.594Z,8.13
2023-02-08T12:08:12.842Z,9.13
2023-02-08T12:11:10.893Z,8.07
2023-02-08T12:14:09.117Z,12.45
2023-02-08T12:16:54.023Z,6.75
2023-02-08T12:19:51.817Z,6.32
2023-02-08T12:22:27.189Z,8.98
2023-02-08T12:25:10.095Z,7.00
2023-02-08T12:27:46.272Z,6.32
2023-02-08T12:30:25.400Z,8.38
2023-02-08T12:33:26.261Z,9.20
2023-02-08T12:36:30.083Z,8.45
2023-02-08T12:42:11.780Z,8.48
2023-02-08T12:45:00.805Z,3.67
2023-02-08T12:48:03.058Z,4.47
2023-02-08T12:50:43.867Z,4.72
2023-02-08T12:53:26.024Z,6.03
2023-02-08T12:55:59.159Z,3.72
2023-02-08T12:58:32.995Z,4.47
2023-02-08T13:01:09.484Z,5.60
2023-02-08T13:03:47.005Z,4.45
2023-02-08T13:06:24.432Z,4.78
2023-02-08T13:09:08.792Z,3.55
2023-02-08T13:11:45.525Z,3.78
2023-02-08T13:14:25.077Z,4.90
2023-02-08T13:16:59.590Z,4.88
2023-02-08T13:19:34.613Z,6.15
2023-02-08T13:22:07.524Z,4.07
2023-02-08T13:24:44.387Z,5.95
2023-02-08T13:30:04.840Z,3.92
2023-02-08T13:32:43.561Z,4.22
2023-02-08T13:35:19.245Z,3.97
2023-02-08T13:38:07.130Z,6.47
2023-02-08T13:40:44.363Z,6.78
2023-02-08T13:43:35.508Z,3.53
2023-02-08T13:46:07.582Z,4.72
2023-02-08T13:48:49.049Z,3.78
2023-02-08T13:52:03.810Z,3.47
2023-02-08T13:54:34.265Z,4.90
2023-02-08T13:57:53.774Z,7.18
2023-02-08T14:00:27.038Z,5.45
2023-02-08T14:03:05.689Z,4.72
2023-02-08T14:05:58.061Z,5.10
2023-02-08T14:08:33.304Z,4.47
2023-02-08T14:11:15.465Z,3.45
2023-02-08T14:13:55.466Z,5.75
2023-02-08T14:16:30.344Z,5.07
2023-02-08T14:19:02.728Z,3.42
2023-02-08T14:21:40.356Z,4.07
2023-02-08T14:24:22.475Z,4.38
2023-02-08T14:26:53.825Z,4.65
2023-02-08T14:29:30.896Z,4.22
2023-02-08T14:32:02.067Z,4.50
2023-02-08T14:37:08.770Z,3.95
2023-02-08T14:39:40.129Z,3.95
2023-02-08T14:42:14.497Z,3.78
2023-02-08T14:45:06.941Z,4.85
2023-02-08T14:48:19.408Z,6.55
2023-02-08T14:50:55.070Z,5.13
2023-02-08T14:53:31.998Z,4.53
2023-02-08T14:56:08.128Z,4.35
2023-02-08T14:58:45.328Z,4.25
2023-02-08T15:01:24.213Z,4.88
2023-02-08T15:04:01.295Z,8.05
2023-02-08T15:06:57.852Z,4.85
2023-02-08T15:09:31.203Z,4.40
2023-02-08T15:12:05.394Z,5.57
2023-02-08T15:14:39.227Z,5.55
2023-02-08T15:17:23.161Z,5.95
2023-02-08T15:19:55.321Z,5.45
2023-02-08T15:22:35.718Z,5.03
2023-02-08T15:25:24.084Z,5.32
2023-02-08T15:27:56.350Z,4.97
2023-02-08T15:30:36.334Z,4.47
2023-02-08T15:33:17.265Z,4.95
2023-02-08T15:35:48.387Z,5.45
2023-02-08T15:38:21.634Z,5.50
2023-02-08T15:41:07.905Z,4.28
2023-02-08T15:43:39.037Z,5.95
2023-02-08T15:46:19.785Z,3.53
2023-02-08T15:48:54.609Z,4.18
2023-02-08T15:51:25.463Z,4.53
2023-02-08T15:53:59.868Z,4.93
2023-02-08T15:56:37.976Z,4.45
2023-02-08T15:59:17.649Z,4.10
2023-02-08T16:01:50.388Z,4.78
2023-02-08T16:04:23.821Z,15.00
2023-02-08T16:06:56.122Z,5.18
2023-02-08T16:09:33.066Z,4.00
2023-02-08T16:12:03.974Z,6.30
2023-02-08T16:14:47.369Z,5.90
2023-02-08T16:17:48.876Z,3.25
2023-02-08T16:20:33.685Z,3.75
2023-02-08T16:23:05.738Z,5.85
2023-02-08T16:25:39.085Z,7.07
2023-02-08T16:28:09.388Z,4.85
2023-02-08T16:30:39.719Z,4.45
2023-02-08T16:33:11.254Z,4.57
2023-02-08T16:35:44.223Z,9.23
2023-02-08T16:38:24.438Z,4.30
2023-02-08T16:40:55.700Z,4.72
2023-02-08T16:46:26.913Z,5.13
2023-02-08T16:48:58.697Z,8.30
2023-02-08T16:51:35.863Z,3.28
2023-02-08T16:54:11.596Z,5.88
2023-02-08T16:56:44.465Z,3.97
2023-02-08T16:59:15.222Z,7.05
2023-02-08T17:01:48.186Z,4.20
2023-02-08T17:04:26.547Z,6.30
2023-02-08T17:06:59.985Z,5.07
2023-02-08T17:09:30.165Z,5.28
2023-02-08T17:12:21.571Z,5.80
2023-02-08T17:14:52.975Z,6.38
2023-02-08T17:17:32.967Z,6.57
2023-02-08T17:20:03.272Z,9.02
2023-02-08T17:22:35.975Z,5.68
2023-02-08T17:25:06.079Z,6.72
2023-02-08T17:27:36.563Z,8.35
2023-02-08T17:30:06.990Z,6.10
2023-02-08T17:32:37.189Z,6.82
2023-02-08T17:35:07.417Z,6.35
2023-02-08T17:37:40.184Z,6.35
2023-02-08T17:40:11.897Z,5.95
2023-02-08T17:45:22.225Z,5.35
2023-02-08T17:47:52.969Z,6.70
2023-02-08T17:50:23.897Z,6.65
2023-02-08T17:52:59.960Z,5.40
2023-02-08T17:55:30.168Z,8.00
2023-02-08T17:58:00.469Z,9.60
2023-02-08T18:00:35.038Z,13.65
2023-02-08T18:03:05.324Z,8.75
2023-02-08T18:05:35.735Z,6.70
2023-02-08T18:08:08.948Z,10.68
2023-02-08T18:10:39.055Z,6.93
2023-02-08T18:13:09.115Z,8.57
2023-02-08T18:15:39.399Z,11.05
2023-02-08T18:18:09.598Z,7.43
2023-02-08T18:20:40.257Z,15.88
2023-02-08T18:23:13.103Z,10.65
2023-02-08T18:25:44.162Z,13.48
2023-02-08T18:28:17.155Z,10.52
2023-02-08T18:30:47.538Z,9.98
2023-02-08T18:33:17.987Z,10.13
2023-02-08T18:35:51.880Z,14.95
2023-02-08T18:38:29.365Z,9.88
2023-02-08T18:40:59.747Z,11.00
2023-02-08T18:43:30.341Z,9.93
2023-02-08T18:46:05.508Z,9.60
2023-02-08T18:48:35.845Z,11.77
2023-02-08T18:51:06.298Z,19.58
2023-02-08T18:53:40.407Z,14.00
2023-02-08T18:56:13.848Z,15.80
2023-02-08T18:58:44.383Z,17.58
2023-02-08T19:01:17.109Z,12.18
2023-02-08T19:03:47.843Z,24.10
2023-02-08T19:06:22.525Z,20.33
2023-02-08T19:08:56.811Z,20.83
2023-02-08T19:11:35.429Z,22.73
2023-02-08T19:14:07.791Z,23.95
2023-02-08T19:16:39.676Z,21.23
2023-02-08T19:19:10.262Z,16.13
2023-02-08T19:21:41.443Z,20.05
2023-02-08T19:24:15.678Z,17.48
2023-02-08T19:26:45.845Z,16.00
2023-02-08T19:29:17.947Z,16.05
2023-02-08T19:31:50.217Z,14.57
2023-02-08T19:34:20.747Z,16.67
2023-02-08T19:36:53.087Z,14.73
2023-02-08T19:39:28.674Z,13.55
2023-02-08T19:41:59.615Z,18.10
2023-02-08T19:44:30.717Z,15.02
2023-02-08T19:47:01.307Z,14.18
2023-02-08T19:49:31.759Z,17.85
2023-02-08T19:52:01.941Z,15.30
2023-02-08T19:54:34.611Z,14.95
2023-02-08T19:57:04.897Z,18.05
2023-02-08T19:59:35.524Z,14.50
2023-02-08T20:02:06.441Z,17.30
2023-02-08T20:04:36.583Z,18.02
2023-02-08T20:07:08.227Z,17.45
2023-02-08T20:09:41.010Z,16.67
2023-02-08T20:12:11.221Z,17.75
2023-02-08T20:14:41.297Z,18.35
2023-02-08T20:17:11.378Z,16.05
2023-02-08T20:19:41.507Z,16.33
2023-02-08T20:22:11.768Z,16.50
2023-02-08T20:24:44.393Z,15.57
2023-02-08T20:27:14.487Z,20.48
2023-02-08T20:29:44.528Z,18.02
2023-02-08T20:32:14.877Z,17.08
2023-02-08T20:34:58.481Z,18.70
2023-02-08T20:37:29.648Z,17.65
2023-02-08T20:40:02.324Z,17.48
2023-02-08T20:42:32.738Z,19.83
2023-02-08T20:45:03.024Z,17.75
2023-02-08T20:47:38.794Z,19.75
2023-02-08T20:50:19.022Z,21.83
2023-02-08T20:52:50.041Z,23.33
2023-02-08T20:55:22.808Z,18.70
2023-02-08T20:57:53.139Z,18.27
2023-02-08T21:00:27.912Z,19.85
2023-02-08T21:03:03.574Z,18.60
2023-02-08T21:05:33.856Z,19.27
2023-02-08T21:08:03.975Z,16.58
2023-02-08T21:10:38.993Z,23.50
2023-02-08T21:13:09.100Z,21.95
2023-02-08T21:15:39.400Z,22.70
2023-02-08T21:18:09.691Z,20.55
2023-02-08T21:20:41.562Z,23.55
2023-02-08T21:23:11.728Z,20.90
2023-02-08T21:25:45.345Z,19.80
2023-02-08T21:28:15.855Z,21.98
2023-02-08T21:30:46.586Z,21.35
2023-02-08T21:33:17.008Z,19.73
2023-02-08T21:35:46.990Z,22.70
2023-02-08T21:38:17.073Z,21.75
2023-02-08T21:40:49.781Z,22.20
2023-02-08T21:43:19.843Z,19.73
2023-02-08T21:45:50.108Z,19.15
2023-02-08T21:48:20.578Z,20.42
2023-02-08T21:51:05.924Z,20.50
2023-02-08T21:53:48.572Z,21.48
2023-02-08T21:56:21.498Z,19.17
2023-02-08T21:58:51.784Z,24.38
2023-02-08T22:01:22.146Z,24.08
2023-02-08T22:03:52.283Z,20.98
2023-02-08T22:06:34.954Z,18.48
2023-02-08T22:09:05.230Z,20.63
2023-02-08T22:11:37.943Z,20.20
2023-02-08T22:14:08.020Z,21.35
2023-02-08T22:16:38.247Z,20.23
2023-02-08T22:19:08.978Z,17.50
2023-02-08T22:21:39.234Z,21.35
2023-02-08T22:24:09.700Z,18.42
2023-02-08T22:26:43.998Z,20.27
2023-02-08T22:29:14.270Z,18.88
2023-02-08T22:31:44.648Z,17.90
2023-02-08T22:34:15.067Z,17.90
2023-02-08T22:36:45.095Z,21.85
2023-02-08T22:39:15.574Z,18.80
2023-02-08T22:41:48.384Z,17.40
2023-02-08T22:44:18.863Z,18.25
2023-02-08T22:46:49.158Z,20.63
2023-02-08T22:49:19.534Z,19.35
2023-02-08T22:51:49.591Z,19.70
2023-02-08T22:54:19.962Z,22.17
2023-02-08T22:56:52.921Z,18.08
2023-02-08T22:59:23.188Z,19.05
2023-02-08T23:01:53.307Z,15.32
2023-02-08T23:04:23.693Z,15.38
2023-02-08T23:06:53.880Z,16.98
2023-02-08T23:09:24.063Z,16.80
2023-02-08T23:11:56.837Z,17.17
2023-02-08T23:14:27.230Z,14.73
2023-02-08T23:16:57.248Z,18.45
2023-02-08T23:19:27.814Z,14.95
2023-02-08T23:22:00.975Z,14.73
2023-02-08T23:24:31.505Z,11.48
2023-02-08T23:27:04.182Z,14.32
2023-02-08T23:29:34.319Z,17.83
2023-02-08T23:32:04.373Z,14.38
2023-02-08T23:34:34.510Z,18.08
2023-02-08T23:37:04.739Z,17.13
2023-02-08T23:39:36.430Z,14.90
2023-02-08T23:42:25.518Z,14.77
2023-02-08T23:44:55.889Z,13.23
2023-02-08T23:47:27.563Z,17.65
2023-02-08T23:49:58.079Z,15.15
2023-02-08T23:52:28.120Z,14.32
2023-02-08T23:54:58.432Z,14.35
2023-02-08T23:57:34.639Z,14.75
